createdAt,value
2022-08-20T00:00:14.148Z,14.15
2022-08-20T00:02:41.906Z,19.00
2022-08-20T00:05:08.384Z,17.48
2022-08-20T00:07:34.717Z,15.60
2022-08-20T00:10:00.959Z,20.70
2022-08-20T00:12:27.345Z,19.40
2022-08-20T00:14:53.615Z,18.33
2022-08-20T00:17:19.881Z,20.40
2022-08-20T00:19:46.154Z,21.25
2022-08-20T00:22:13.501Z,18.48
2022-08-20T00:24:39.747Z,22.27
2022-08-20T00:27:06.105Z,19.63
2022-08-20T00:29:32.410Z,15.35
2022-08-20T00:31:58.711Z,15.85
2022-08-20T00:34:25.027Z,14.50
2022-08-20T00:36:51.493Z,16.58
2022-08-20T00:39:17.768Z,16.65
2022-08-20T00:41:43.969Z,13.48
2022-08-20T00:44:15.098Z,15.60
2022-08-20T00:46:42.649Z,14.35
2022-08-20T00:49:12.323Z,18.23
2022-08-20T00:51:38.643Z,17.55
2022-08-20T00:54:06.770Z,15.45
2022-08-20T00:56:33.873Z,16.83
2022-08-20T00:59:00.833Z,18.85
2022-08-20T01:01:27.184Z,17.88
2022-08-20T01:03:56.408Z,19.30
2022-08-20T01:06:24.748Z,22.33
2022-08-20T01:08:51.101Z,22.90
2022-08-20T01:11:20.177Z,25.25
2022-08-20T01:13:48.389Z,23.13
2022-08-20T01:16:18.636Z,24.27
2022-08-20T01:18:46.310Z,23.02
2022-08-20T01:21:12.734Z,22.02
2022-08-20T01:23:38.953Z,23.77
2022-08-20T01:26:06.518Z,21.02
2022-08-20T01:28:35.963Z,19.58
2022-08-20T01:31:03.624Z,23.50
2022-08-20T01:33:29.956Z,24.38
2022-08-20T01:35:56.254Z,24.67
2022-08-20T01:38:22.811Z,25.02
2022-08-20T01:41:07.830Z,26.20
2022-08-20T01:43:36.466Z,27.50
2022-08-20T01:46:04.166Z,30.38
2022-08-20T01:48:31.065Z,31.52
2022-08-20T01:51:06.437Z,31.65
2022-08-20T01:53:34.583Z,33.65
2022-08-20T01:56:02.779Z,28.02
2022-08-20T01:58:29.711Z,28.10
2022-08-20T02:00:57.611Z,27.50
2022-08-20T02:03:24.067Z,30.40
2022-08-20T02:05:50.392Z,31.15
2022-08-20T02:08:16.763Z,34.53
2022-08-20T02:10:46.003Z,38.22
2022-08-20T02:13:13.732Z,40.33
2022-08-20T02:15:43.061Z,47.15
2022-08-20T02:18:12.410Z,43.63
2022-08-20T02:20:39.046Z,39.70
2022-08-20T02:23:06.115Z,44.95
2022-08-20T02:25:33.952Z,43.50
2022-08-20T02:28:06.747Z,43.28
2022-08-20T02:30:35.534Z,44.05
2022-08-20T02:33:02.713Z,44.40
2022-08-20T02:35:30.203Z,37.05
2022-08-20T02:37:57.737Z,37.85
2022-08-20T02:40:30.598Z,39.28
2022-08-20T02:42:58.313Z,39.53
2022-08-20T02:45:24.593Z,34.88
2022-08-20T02:47:53.862Z,40.33
2022-08-20T02:50:20.938Z,31.27
2022-08-20T02:52:51.833Z,37.92
2022-08-20T02:55:27.027Z,33.08
2022-08-20T02:57:58.807Z,35.97
2022-08-20T03:00:26.372Z,33.85
2022-08-20T03:02:52.693Z,33.40
2022-08-20T03:05:19.120Z,37.88
2022-08-20T03:07:46.795Z,35.17
2022-08-20T03:10:13.707Z,33.00
2022-08-20T03:12:40.421Z,30.30
2022-08-20T03:15:07.584Z,31.42
2022-08-20T03:17:43.813Z,31.08
2022-08-20T03:20:10.415Z,30.52
2022-08-20T03:22:36.747Z,37.65
2022-08-20T03:25:03.434Z,35.00
2022-08-20T03:27:32.724Z,30.08
2022-08-20T03:30:04.117Z,31.58
2022-08-20T03:32:30.372Z,35.50
2022-08-20T03:34:56.691Z,38.75
2022-08-20T03:37:23.215Z,30.88
2022-08-20T03:39:49.548Z,37.35
2022-08-20T03:42:15.838Z,36.38
2022-08-20T03:44:42.105Z,32.05
2022-08-20T03:47:09.368Z,34.60
2022-08-20T03:49:36.043Z,31.80
2022-08-20T03:52:03.609Z,33.88
2022-08-20T03:54:31.729Z,37.85
2022-08-20T03:56:59.125Z,35.08
2022-08-20T03:59:25.520Z,29.65
2022-08-20T04:01:52.571Z,21.45
2022-08-20T04:04:19.444Z,26.60
2022-08-20T04:06:47.391Z,24.17
2022-08-20T04:09:14.243Z,24.65
2022-08-20T04:11:41.307Z,24.02
2022-08-20T04:14:09.283Z,28.90
2022-08-20T04:16:37.784Z,32.38
2022-08-20T04:19:04.242Z,29.90
2022-08-20T04:21:33.192Z,33.13
2022-08-20T04:24:00.349Z,31.80
2022-08-20T04:26:26.623Z,27.63
2022-08-20T04:28:55.256Z,33.88
2022-08-20T04:31:25.234Z,32.38
2022-08-20T04:33:51.825Z,45.80
2022-08-20T04:36:18.104Z,46.17
2022-08-20T04:38:50.631Z,53.10
2022-08-20T04:41:22.640Z,63.80
2022-08-20T04:43:50.881Z,61.55
2022-08-20T04:46:17.160Z,79.10
2022-08-20T04:48:48.966Z,73.13
2022-08-20T04:51:17.099Z,81.95
2022-08-20T04:53:45.074Z,84.97
2022-08-20T04:56:19.686Z,91.13
2022-08-20T04:58:50.921Z,102.47
2022-08-20T05:01:17.241Z,116.35
2022-08-20T05:03:43.585Z,104.15
2022-08-20T05:06:10.894Z,106.20
2022-08-20T05:08:38.455Z,99.80
2022-08-20T05:11:34.881Z,105.97
2022-08-20T05:13:52.809Z,114.30
2022-08-20T05:16:19.834Z,97.88
2022-08-20T05:18:52.617Z,87.18
2022-08-20T05:21:19.936Z,87.93
2022-08-20T05:23:46.215Z,92.13
2022-08-20T05:26:12.914Z,86.70
2022-08-20T05:28:52.787Z,84.07
2022-08-20T05:31:32.435Z,80.68
2022-08-20T05:34:00.440Z,78.43
2022-08-20T05:36:26.949Z,82.63
2022-08-20T05:38:53.748Z,73.28
2022-08-20T05:41:27.693Z,79.80
2022-08-20T05:43:55.738Z,76.97
2022-08-20T05:46:22.837Z,86.28
2022-08-20T05:48:49.418Z,77.10
2022-08-20T05:51:15.813Z,72.85
2022-08-20T05:53:42.072Z,76.50
2022-08-20T05:56:10.254Z,84.80
2022-08-20T05:58:36.793Z,83.72
2022-08-20T06:01:04.089Z,84.32
2022-08-20T06:03:48.837Z,79.53
2022-08-20T06:06:17.929Z,79.25
2022-08-20T06:09:01.414Z,82.35
2022-08-20T06:11:27.682Z,76.25
2022-08-20T06:13:53.928Z,73.68
2022-08-20T06:16:20.161Z,75.60
2022-08-20T06:18:47.046Z,73.25
2022-08-20T06:21:13.358Z,78.05
2022-08-20T06:23:54.152Z,93.15
2022-08-20T06:26:29.663Z,75.40
2022-08-20T06:28:57.504Z,69.57
2022-08-20T06:31:24.256Z,66.53
2022-08-20T06:33:50.532Z,64.90
2022-08-20T06:36:18.774Z,56.17
2022-08-20T06:38:46.060Z,60.92
2022-08-20T06:41:12.336Z,61.25
2022-08-20T06:43:38.629Z,54.58
2022-08-20T06:46:06.396Z,61.25
2022-08-20T06:48:32.883Z,52.28
2022-08-20T06:50:59.195Z,50.75
2022-08-20T06:53:25.490Z,47.47
2022-08-20T06:55:54.019Z,56.35
2022-08-20T06:58:32.701Z,47.33
2022-08-20T07:01:09.642Z,45.50
2022-08-20T07:03:38.079Z,40.65
2022-08-20T07:06:04.704Z,48.65
2022-08-20T07:08:31.015Z,43.67
2022-08-20T07:10:57.243Z,36.30
2022-08-20T07:13:24.334Z,38.97
2022-08-20T07:15:54.012Z,31.67
2022-08-20T07:18:28.209Z,28.15
2022-08-20T07:20:56.710Z,26.75
2022-08-20T07:23:23.750Z,30.38
2022-08-20T07:25:50.382Z,30.90
2022-08-20T07:28:18.717Z,27.88
2022-08-20T07:31:04.255Z,28.60
2022-08-20T07:33:40.500Z,27.30
2022-08-20T07:36:07.654Z,21.92
2022-08-20T07:38:34.056Z,20.75
2022-08-20T07:41:02.158Z,24.35
2022-08-20T07:43:28.419Z,20.60
2022-08-20T07:45:56.342Z,27.45
2022-08-20T07:48:31.010Z,18.88
2022-08-20T07:50:59.562Z,19.17
2022-08-20T07:53:25.934Z,25.58
2022-08-20T07:55:58.862Z,19.70
2022-08-20T07:58:27.694Z,18.55
2022-08-20T08:01:00.139Z,16.27
2022-08-20T08:03:40.702Z,17.25
2022-08-20T08:06:14.377Z,19.40
2022-08-20T08:08:41.318Z,20.25
2022-08-20T08:11:07.800Z,20.60
2022-08-20T08:13:37.878Z,17.27
2022-08-20T08:16:05.962Z,18.92
2022-08-20T08:18:38.112Z,21.08
2022-08-20T08:21:05.439Z,21.58
2022-08-20T08:23:32.308Z,21.75
2022-08-20T08:25:59.176Z,24.25
2022-08-20T08:28:26.108Z,19.00
2022-08-20T08:30:52.449Z,17.90
2022-08-20T08:33:29.183Z,17.83
2022-08-20T08:35:56.235Z,21.27
2022-08-20T08:38:23.085Z,18.38
2022-08-20T08:40:51.450Z,17.42
2022-08-20T08:43:27.085Z,16.55
2022-08-20T08:46:01.377Z,20.48
2022-08-20T08:48:32.366Z,22.10
2022-08-20T08:50:59.500Z,23.13
2022-08-20T08:53:30.245Z,22.17
2022-08-20T08:55:56.525Z,22.05
2022-08-20T08:58:22.805Z,30.10
2022-08-20T09:00:56.447Z,27.30
2022-08-20T09:03:25.851Z,26.05
2022-08-20T09:05:53.540Z,25.30
2022-08-20T09:08:24.086Z,31.40
2022-08-20T09:10:50.396Z,24.45
2022-08-20T09:13:16.678Z,25.92
2022-08-20T09:15:42.961Z,25.65
2022-08-20T09:18:09.232Z,26.67
2022-08-20T09:20:35.498Z,25.65
2022-08-20T09:23:01.810Z,22.20
2022-08-20T09:25:28.060Z,32.08
2022-08-20T09:27:54.439Z,23.38
2022-08-20T09:30:21.045Z,23.83
2022-08-20T09:32:47.374Z,22.17
2022-08-20T09:35:13.785Z,30.38
2022-08-20T09:37:40.105Z,20.17
2022-08-20T09:40:08.405Z,22.77
2022-08-20T09:42:40.723Z,19.42
2022-08-20T09:45:10.769Z,17.17
2022-08-20T09:47:37.770Z,14.38
2022-08-20T09:50:06.727Z,14.55
2022-08-20T09:52:38.877Z,20.42
2022-08-20T09:55:27.240Z,18.70
2022-08-20T09:57:53.776Z,20.60
2022-08-20T10:00:20.085Z,20.98
2022-08-20T10:02:46.400Z,22.52
2022-08-20T10:05:12.948Z,23.55
2022-08-20T10:07:39.687Z,23.63
2022-08-20T10:10:07.496Z,20.13
2022-08-20T10:12:33.966Z,23.15
2022-08-20T10:15:00.185Z,23.45
2022-08-20T10:17:26.446Z,18.15
2022-08-20T10:19:52.766Z,18.85
2022-08-20T10:22:19.146Z,19.02
2022-08-20T10:24:45.402Z,21.60
2022-08-20T10:27:11.740Z,19.98
2022-08-20T10:29:37.985Z,17.40
2022-08-20T10:32:14.967Z,17.10
2022-08-20T10:34:42.690Z,20.27
2022-08-20T10:37:09.210Z,19.48
2022-08-20T10:39:36.031Z,22.23
2022-08-20T10:42:02.307Z,23.38
2022-08-20T10:44:30.162Z,23.05
2022-08-20T10:46:57.084Z,20.83
2022-08-20T10:49:23.547Z,22.73
2022-08-20T10:51:49.854Z,16.67
2022-08-20T10:54:16.094Z,18.00
2022-08-20T10:56:42.817Z,21.77
2022-08-20T10:59:09.119Z,23.85
2022-08-20T11:01:36.940Z,16.73
2022-08-20T11:04:03.632Z,22.38
2022-08-20T11:06:29.909Z,19.20
2022-08-20T11:08:57.041Z,17.52
2022-08-20T11:11:23.558Z,21.15
2022-08-20T11:13:49.851Z,17.45
2022-08-20T11:16:16.121Z,14.48
2022-08-20T11:18:46.774Z,12.77
2022-08-20T11:21:14.018Z,16.58
2022-08-20T11:23:40.382Z,15.70
2022-08-20T11:26:06.710Z,15.00
2022-08-20T11:28:33.227Z,20.70
2022-08-20T11:31:00.480Z,22.67
2022-08-20T11:33:26.813Z,24.23
2022-08-20T11:35:53.135Z,23.45
2022-08-20T11:38:19.439Z,16.50
2022-08-20T11:40:48.656Z,21.65
2022-08-20T11:43:16.657Z,14.10
2022-08-20T11:45:44.805Z,11.70
2022-08-20T11:48:11.105Z,13.65
2022-08-20T11:50:37.339Z,16.52
2022-08-20T11:53:03.604Z,14.02
2022-08-20T11:55:30.332Z,13.63
2022-08-20T11:57:59.978Z,14.55
2022-08-20T12:00:32.351Z,15.93
2022-08-20T12:03:00.523Z,15.88
2022-08-20T12:05:27.334Z,18.75
2022-08-20T12:07:53.638Z,19.60
2022-08-20T12:10:19.961Z,16.67
2022-08-20T12:12:46.338Z,20.20
2022-08-20T12:15:12.605Z,22.73
2022-08-20T12:17:39.758Z,18.25
2022-08-20T12:20:10.513Z,17.45
2022-08-20T12:22:37.053Z,15.68
2022-08-20T12:25:04.473Z,15.20
2022-08-20T12:27:32.397Z,16.83
2022-08-20T12:29:59.981Z,20.20
2022-08-20T12:32:27.662Z,14.93
2022-08-20T12:34:54.311Z,18.65
2022-08-20T12:37:22.911Z,16.92
2022-08-20T12:39:51.408Z,18.30
2022-08-20T12:42:18.242Z,17.58
2022-08-20T12:44:44.536Z,18.67
2022-08-20T12:47:34.145Z,17.65
2022-08-20T12:50:01.966Z,15.00
2022-08-20T12:52:28.999Z,17.15
2022-08-20T12:54:55.305Z,18.67
2022-08-20T12:57:26.500Z,18.70
2022-08-20T12:59:52.744Z,13.30
2022-08-20T13:02:19.169Z,13.23
2022-08-20T13:04:45.640Z,16.52
2022-08-20T13:07:12.869Z,13.77
2022-08-20T13:09:40.466Z,12.50
2022-08-20T13:12:07.100Z,13.25
2022-08-20T13:14:33.514Z,15.07
2022-08-20T13:17:00.849Z,17.15
2022-08-20T13:19:27.854Z,15.70
2022-08-20T13:21:55.060Z,13.77
2022-08-20T13:24:21.900Z,13.00
2022-08-20T13:26:48.255Z,15.45
2022-08-20T13:29:14.607Z,13.40
2022-08-20T13:31:41.401Z,10.40
2022-08-20T13:34:07.708Z,13.52
2022-08-20T13:36:34.646Z,11.55
2022-08-20T13:39:01.350Z,11.80
2022-08-20T13:41:27.659Z,11.45
2022-08-20T13:43:54.013Z,9.75
2022-08-20T13:46:20.281Z,11.52
2022-08-20T13:48:46.571Z,8.63
2022-08-20T13:51:12.878Z,8.27
2022-08-20T13:53:39.142Z,12.57
2022-08-20T13:56:05.453Z,12.68
2022-08-20T13:58:31.729Z,9.57
2022-08-20T14:00:58.089Z,13.18
2022-08-20T14:03:25.282Z,9.90
2022-08-20T14:05:52.148Z,10.38
2022-08-20T14:08:22.642Z,13.23
2022-08-20T14:10:51.417Z,14.95
2022-08-20T14:13:19.353Z,14.10
2022-08-20T14:15:45.739Z,7.18
2022-08-20T14:18:12.610Z,8.60
2022-08-20T14:20:38.990Z,10.82
2022-08-20T14:23:05.263Z,12.50
2022-08-20T14:25:31.873Z,8.35
2022-08-20T14:27:58.316Z,11.30
2022-08-20T14:30:28.916Z,9.52
2022-08-20T14:32:55.299Z,8.35
2022-08-20T14:35:21.944Z,7.82
2022-08-20T14:37:52.831Z,5.97
2022-08-20T14:40:20.059Z,11.20
2022-08-20T14:42:47.796Z,9.10
2022-08-20T14:45:18.605Z,9.70
2022-08-20T14:47:54.055Z,7.22
2022-08-20T14:50:26.025Z,6.43
2022-08-20T14:52:53.050Z,5.03
2022-08-20T14:55:20.449Z,9.32
2022-08-20T14:57:47.039Z,9.68
2022-08-20T15:00:17.770Z,5.65
2022-08-20T15:02:44.684Z,7.53
2022-08-20T15:05:11.123Z,7.60
2022-08-20T15:07:39.026Z,6.03
2022-08-20T15:10:09.230Z,8.38
2022-08-20T15:12:35.597Z,7.85
2022-08-20T15:15:15.328Z,5.22
2022-08-20T15:17:46.709Z,5.00
2022-08-20T15:20:20.112Z,6.10
2022-08-20T15:25:14.600Z,4.43
2022-08-20T15:27:41.061Z,6.93
2022-08-20T15:30:15.112Z,7.85
2022-08-20T15:32:41.491Z,6.43
2022-08-20T15:35:09.880Z,9.00
2022-08-20T15:37:38.460Z,5.40
2022-08-20T15:40:07.643Z,7.25
2022-08-20T15:42:33.957Z,4.95
2022-08-20T15:45:00.220Z,5.90
2022-08-20T15:47:28.631Z,7.68
2022-08-20T15:50:14.012Z,6.38
2022-08-20T15:52:42.327Z,12.10
2022-08-20T15:55:11.311Z,7.95
2022-08-20T15:57:45.195Z,5.90
2022-08-20T16:00:12.664Z,6.78
2022-08-20T16:02:44.853Z,8.20
2022-08-20T16:05:41.970Z,7.07
2022-08-20T16:08:08.619Z,6.20
2022-08-20T16:10:49.876Z,6.53
2022-08-20T16:13:39.246Z,6.50
2022-08-20T16:16:09.534Z,6.53
2022-08-20T16:18:37.420Z,6.63
2022-08-20T16:21:08.151Z,8.65
2022-08-20T16:23:37.351Z,5.93
2022-08-20T16:26:12.664Z,7.63
2022-08-20T16:28:57.490Z,7.38
2022-08-20T16:31:25.374Z,7.50
2022-08-20T16:33:55.173Z,11.38
2022-08-20T16:36:36.899Z,8.57
2022-08-20T16:39:08.303Z,10.43
2022-08-20T16:41:37.947Z,10.55
2022-08-20T16:44:07.639Z,5.63
2022-08-20T16:46:38.163Z,7.38
2022-08-20T16:49:11.194Z,12.38
2022-08-20T16:51:39.642Z,9.18
2022-08-20T16:54:06.061Z,8.90
2022-08-20T16:56:34.231Z,12.25
2022-08-20T16:59:04.743Z,9.80
2022-08-20T17:01:31.101Z,9.05
2022-08-20T17:03:57.522Z,11.60
2022-08-20T17:06:37.363Z,5.72
2022-08-20T17:09:11.155Z,7.30
2022-08-20T17:11:37.934Z,9.40
2022-08-20T17:14:10.142Z,12.73
2022-08-20T17:16:38.798Z,8.20
2022-08-20T17:19:17.942Z,8.88
2022-08-20T17:21:44.318Z,10.00
2022-08-20T17:24:22.509Z,8.25
2022-08-20T17:26:50.642Z,8.40
2022-08-20T17:29:21.610Z,7.55
2022-08-20T17:31:52.412Z,11.00
2022-08-20T17:34:18.666Z,10.93
2022-08-20T17:36:49.431Z,7.32
2022-08-20T17:39:18.207Z,12.50
2022-08-20T17:41:47.404Z,8.05
2022-08-20T17:44:33.248Z,13.00
2022-08-20T17:46:59.674Z,8.20
2022-08-20T17:49:40.833Z,8.90
2022-08-20T17:52:11.372Z,9.27
2022-08-20T17:54:41.135Z,11.00
2022-08-20T17:57:12.962Z,12.90
2022-08-20T18:00:02.702Z,9.20
2022-08-20T18:02:29.363Z,9.98
2022-08-20T18:04:55.958Z,8.75
2022-08-20T18:07:25.092Z,9.45
2022-08-20T18:09:54.322Z,8.63
2022-08-20T18:12:36.094Z,9.20
2022-08-20T18:15:05.135Z,11.38
2022-08-20T18:17:40.439Z,13.77
2022-08-20T18:20:22.056Z,12.50
2022-08-20T18:22:55.956Z,11.57
2022-08-20T18:25:32.804Z,10.17
2022-08-20T18:28:03.493Z,9.63
2022-08-20T18:30:29.974Z,12.38
2022-08-20T18:33:02.043Z,12.48
2022-08-20T18:35:37.512Z,11.18
2022-08-20T18:38:24.474Z,12.98
2022-08-20T18:40:55.074Z,9.43
2022-08-20T18:43:30.252Z,9.43
2022-08-20T18:45:56.592Z,12.20
2022-08-20T18:48:24.521Z,8.48
2022-08-20T18:50:54.956Z,10.07
2022-08-20T18:53:21.238Z,9.15
2022-08-20T18:55:58.967Z,11.82
2022-08-20T18:58:29.765Z,9.95
2022-08-20T19:00:56.194Z,10.35
2022-08-20T19:03:37.786Z,11.73
2022-08-20T19:06:03.978Z,10.18
2022-08-20T19:08:42.880Z,11.82
2022-08-20T19:11:27.618Z,10.80
2022-08-20T19:14:07.582Z,11.10
2022-08-20T19:16:35.993Z,12.38
2022-08-20T19:19:02.322Z,13.23
2022-08-20T19:21:35.274Z,10.80
2022-08-20T19:24:03.145Z,17.00
2022-08-20T19:26:31.246Z,15.18
2022-08-20T19:29:00.163Z,14.82
2022-08-20T19:31:28.196Z,12.00
2022-08-20T19:34:19.583Z,9.05
2022-08-20T19:36:52.450Z,10.65
2022-08-20T19:39:20.804Z,12.32
2022-08-20T19:41:55.923Z,13.80
2022-08-20T19:44:46.875Z,13.23
2022-08-20T19:47:19.967Z,13.02
2022-08-20T19:50:06.772Z,12.10
2022-08-20T19:52:45.243Z,13.32
2022-08-20T19:55:25.597Z,15.15
2022-08-20T19:57:53.274Z,10.43
2022-08-20T20:00:19.688Z,9.65
2022-08-20T20:02:46.004Z,13.60
2022-08-20T20:05:12.307Z,12.85
2022-08-20T20:07:40.787Z,15.38
2022-08-20T20:10:08.583Z,12.73
2022-08-20T20:12:35.269Z,10.30
2022-08-20T20:15:01.810Z,14.55
2022-08-20T20:17:31.502Z,9.60
2022-08-20T20:19:59.918Z,10.07
2022-08-20T20:22:28.718Z,19.27
2022-08-20T20:25:04.013Z,14.07
2022-08-20T20:27:31.995Z,15.82
2022-08-20T20:30:00.046Z,15.57
2022-08-20T20:32:26.590Z,12.55
2022-08-20T20:34:55.388Z,16.85
2022-08-20T20:37:42.226Z,21.00
2022-08-20T20:40:21.513Z,13.02
2022-08-20T20:42:58.709Z,14.50
2022-08-20T20:45:29.088Z,14.10
2022-08-20T20:47:55.545Z,14.18
2022-08-20T20:50:27.119Z,17.20
2022-08-20T20:52:56.544Z,19.05
2022-08-20T20:55:25.194Z,9.98
2022-08-20T20:57:52.044Z,17.52
2022-08-20T21:00:19.505Z,13.48
2022-08-20T21:02:45.963Z,17.52
2022-08-20T21:05:13.982Z,12.38
2022-08-20T21:07:55.108Z,14.95
2022-08-20T21:10:22.982Z,13.95
2022-08-20T21:12:52.923Z,14.43
2022-08-20T21:15:20.729Z,13.20
2022-08-20T21:17:47.134Z,17.20
2022-08-20T21:20:13.467Z,12.15
2022-08-20T21:22:39.910Z,14.68
2022-08-20T21:25:07.019Z,16.48
2022-08-20T21:27:34.151Z,16.20
2022-08-20T21:30:00.548Z,12.32
2022-08-20T21:32:26.806Z,10.57
2022-08-20T21:34:53.094Z,17.30
2022-08-20T21:37:19.389Z,16.10
2022-08-20T21:39:45.675Z,14.05
2022-08-20T21:42:28.429Z,14.50
2022-08-20T21:44:56.095Z,11.00
2022-08-20T21:47:22.678Z,15.00
2022-08-20T21:49:48.900Z,10.23
2022-08-20T21:52:15.214Z,26.52
2022-08-20T21:54:41.446Z,13.82
2022-08-20T21:57:08.965Z,23.33
2022-08-20T21:59:38.415Z,14.50
2022-08-20T22:02:04.726Z,12.32
2022-08-20T22:04:35.198Z,14.05
2022-08-20T22:07:02.422Z,13.60
2022-08-20T22:09:28.959Z,16.35
2022-08-20T22:11:57.487Z,18.15
2022-08-20T22:14:27.412Z,16.90
2022-08-20T22:16:53.663Z,18.23
2022-08-20T22:19:19.988Z,14.48
2022-08-20T22:21:46.439Z,13.57
2022-08-20T22:24:13.399Z,20.85
2022-08-20T22:26:40.389Z,16.83
2022-08-20T22:29:07.572Z,14.10
2022-08-20T22:31:35.069Z,14.18
2022-08-20T22:34:01.382Z,11.77
2022-08-20T22:36:28.029Z,19.23
2022-08-20T22:38:54.918Z,15.80
2022-08-20T22:41:21.559Z,16.08
2022-08-20T22:43:56.867Z,15.05
2022-08-20T22:46:25.046Z,15.73
2022-08-20T22:48:53.244Z,13.32
2022-08-20T22:51:30.955Z,16.42
2022-08-20T22:53:57.810Z,15.38
2022-08-20T22:56:24.112Z,11.38
2022-08-20T22:58:50.955Z,13.52
2022-08-20T23:01:17.733Z,19.08
2022-08-20T23:03:44.118Z,16.77
2022-08-20T23:06:10.661Z,13.77
2022-08-20T23:08:37.925Z,13.32
2022-08-20T23:11:04.286Z,17.02
2022-08-20T23:13:30.539Z,18.92
2022-08-20T23:15:57.170Z,13.23
2022-08-20T23:18:23.622Z,16.73
2022-08-20T23:20:54.432Z,10.88
2022-08-20T23:23:21.068Z,17.98
2022-08-20T23:25:47.487Z,19.48
2022-08-20T23:28:13.816Z,12.88
2022-08-20T23:30:40.134Z,13.13
2022-08-20T23:33:06.395Z,13.68
2022-08-20T23:35:33.352Z,11.65
2022-08-20T23:37:59.956Z,10.80
2022-08-20T23:40:28.227Z,12.50
2022-08-20T23:42:55.508Z,10.15
2022-08-20T23:45:21.919Z,13.73
2022-08-20T23:47:48.551Z,12.02
2022-08-20T23:50:17.089Z,11.48
2022-08-20T23:52:43.435Z,16.08
2022-08-20T23:55:09.937Z,11.48
2022-08-20T23:57:37.582Z,12.07
